Time,TemperatureF,DewpointF,PressureIn,WindDirection,WindDirectionDegrees,WindSpeedMPH,WindSpeedGustMPH,Humidity,HourlyPrecipIn,Conditions,Clouds,dailyrainin,SoftwareType,DateUTC
2013-01-09 00:02:00,31.5,27.2,30.37,SW,235,0.0,0.0,84,0.00,,,0.00,Wunderground v.1.15,2013-01-09 05:02:00,
2013-01-09 00:03:00,31.5,27.2,30.37,SW,235,0.0,0.0,84,0.00,,,0.00,Wunderground v.1.15,2013-01-09 05:03:00,
2013-01-09 00:05:00,31.5,27.2,30.37,SW,235,0.0,0.0,84,0.00,,,0.00,Wunderground v.1.15,2013-01-09 05:05:00,
2013-01-09 00:11:00,31.4,27.1,30.37,SW,235,0.0,0.0,84,0.00,,,0.00,Wunderground v.1.15,2013-01-09 05:11:00,
2013-01-09 00:17:00,31.5,27.2,30.37,SW,235,0.0,0.0,84,0.00,,,0.00,Wunderground v.1.15,2013-01-09 05:17:00,
2013-01-09 00:22:00,31.5,27.2,30.37,SW,235,0.0,0.0,84,0.00,,,0.00,Wunderground v.1.15,2013-01-09 05:22:00,
2013-01-09 00:28:00,31.5,26.9,30.37,SW,235,0.0,0.0,83,0.00,,,0.00,Wunderground v.1.15,2013-01-09 05:28:00,
2013-01-09 00:33:00,31.5,26.9,30.36,SW,235,0.0,0.0,83,0.00,,,0.00,Wunderground v.1.15,2013-01-09 05:33:00,
2013-01-09 00:38:00,31.5,26.9,30.36,SW,235,0.0,0.0,83,0.00,,,0.00,Wunderground v.1.15,2013-01-09 05:38:00,
2013-01-09 00:44:00,31.4,26.8,30.36,SW,235,0.0,0.0,83,0.00,,,0.00,Wunderground v.1.15,2013-01-09 05:44:00,
2013-01-09 00:50:00,31.0,26.4,30.37,SW,235,0.0,0.0,83,0.00,,,0.00,Wunderground v.1.15,2013-01-09 05:50:00,
2013-01-09 00:55:00,30.8,26.5,30.37,SW,235,0.0,0.0,84,0.00,,,0.00,Wunderground v.1.15,2013-01-09 05:55:00,
2013-01-09 01:01:00,30.7,26.4,30.37,SW,235,0.0,0.0,84,0.00,,,0.00,Wunderground v.1.15,2013-01-09 06:01:00,
2013-01-09 01:07:00,30.6,26.6,30.37,SW,235,0.0,0.0,85,0.00,,,0.00,Wunderground v.1.15,2013-01-09 06:07:00,
2013-01-09 01:13:00,30.5,26.5,30.37,SW,235,0.0,0.0,85,0.00,,,0.00,Wunderground v.1.15,2013-01-09 06:13:00,
2013-01-09 01:19:00,30.5,26.5,30.37,SW,235,0.0,0.0,85,0.00,,,0.00,Wunderground v.1.15,2013-01-09 06:19:00,
2013-01-09 01:24:00,30.3,26.3,30.37,SW,235,0.0,0.0,85,0.00,,,0.00,Wunderground v.1.15,2013-01-09 06:24:00,
2013-01-09 01:30:00,30.1,26.1,30.37,SW,235,0.0,0.0,85,0.00,,,0.00,Wunderground v.1.15,2013-01-09 06:30:00,
2013-01-09 01:36:00,29.9,25.9,30.36,SW,235,0.0,0.0,85,0.00,,,0.00,Wunderground v.1.15,2013-01-09 06:36:00,
2013-01-09 01:41:00,29.8,25.8,30.36,SW,235,0.0,0.0,85,0.00,,,0.00,Wunderground v.1.15,2013-01-09 06:41:00,
2013-01-09 01:47:00,29.6,25.6,30.36,SW,235,0.0,0.0,85,0.00,,,0.00,Wunderground v.1.15,2013-01-09 06:47:00,
2013-01-09 01:53:00,29.5,25.8,30.37,SW,235,0.0,0.0,86,0.00,,,0.00,Wunderground v.1.15,2013-01-09 06:53:00,
2013-01-09 01:58:00,29.3,25.6,30.36,SW,235,0.0,0.0,86,0.00,,,0.00,Wunderground v.1.15,2013-01-09 06:58:00,
2013-01-09 02:04:00,29.3,25.6,30.36,SW,235,0.0,0.0,86,0.00,,,0.00,Wunderground v.1.15,2013-01-09 07:04:00,
2013-01-09 02:10:00,29.3,25.6,30.36,SW,235,0.0,0.0,86,0.00,,,0.00,Wunderground v.1.15,2013-01-09 07:10:00,
2013-01-09 02:15:00,29.2,25.5,30.36,SW,235,0.0,0.0,86,0.00,,,0.00,Wunderground v.1.15,2013-01-09 07:15:00,
2013-01-09 02:21:00,29.2,25.5,30.36,SW,235,0.0,0.0,86,0.00,,,0.00,Wunderground v.1.15,2013-01-09 07:21:00,
2013-01-09 02:27:00,29.2,25.5,30.36,SW,235,0.0,0.0,86,0.00,,,0.00,Wunderground v.1.15,2013-01-09 07:27:00,
2013-01-09 02:32:00,29.2,25.5,30.37,SW,235,0.0,0.0,86,0.00,,,0.00,Wunderground v.1.15,2013-01-09 07:32:00,
2013-01-09 02:38:00,29.1,25.4,30.37,SW,235,0.0,0.0,86,0.00,,,0.00,Wunderground v.1.15,2013-01-09 07:38:00,
2013-01-09 02:44:00,28.9,25.2,30.37,SW,235,0.0,0.0,86,0.00,,,0.00,Wunderground v.1.15,2013-01-09 07:44:00,
2013-01-09 02:50:00,28.9,25.2,30.37,SW,235,0.0,0.0,86,0.00,,,0.00,Wunderground v.1.15,2013-01-09 07:50:00,
2013-01-09 02:55:00,28.9,25.2,30.37,SW,235,0.0,0.0,86,0.00,,,0.00,Wunderground v.1.15,2013-01-09 07:55:00,
2013-01-09 03:00:00,28.9,25.2,30.37,SW,235,0.0,0.0,86,0.00,,,0.00,Wunderground v.1.15,2013-01-09 08:00:00,
2013-01-09 03:06:00,28.7,25.0,30.37,SW,235,0.0,0.0,86,0.00,,,0.00,Wunderground v.1.15,2013-01-09 08:06:00,
2013-01-09 03:12:00,28.8,25.1,30.37,SW,235,0.0,0.0,86,0.00,,,0.00,Wunderground v.1.15,2013-01-09 08:12:00,
2013-01-09 03:17:00,28.8,25.1,30.37,SW,235,0.0,0.0,86,0.00,,,0.00,Wunderground v.1.15,2013-01-09 08:17:00,
2013-01-09 03:23:00,28.7,24.8,30.37,SW,235,0.0,0.0,85,0.00,,,0.00,Wunderground v.1.15,2013-01-09 08:23:00,
2013-01-09 03:29:00,28.7,24.8,30.36,SW,235,0.0,0.0,85,0.00,,,0.00,Wunderground v.1.15,2013-01-09 08:29:00,
2013-01-09 03:35:00,28.7,24.8,30.36,SW,235,0.0,0.0,85,0.00,,,0.00,Wunderground v.1.15,2013-01-09 08:35:00,
2013-01-09 03:41:00,28.8,24.9,30.36,SW,235,0.0,0.0,85,0.00,,,0.00,Wunderground v.1.15,2013-01-09 08:41:00,
2013-01-09 03:47:00,28.9,25.0,30.36,SW,235,0.0,0.0,85,0.00,,,0.00,Wunderground v.1.15,2013-01-09 08:47:00,
2013-01-09 03:52:00,28.9,25.0,30.36,SW,235,0.0,0.0,85,0.00,,,0.00,Wunderground v.1.15,2013-01-09 08:52:00,
2013-01-09 03:58:00,28.9,24.7,30.35,SW,235,0.0,0.0,84,0.00,,,0.00,Wunderground v.1.15,2013-01-09 08:58:00,
2013-01-09 04:03:00,28.9,25.0,30.35,SW,235,0.0,0.0,85,0.00,,,0.00,Wunderground v.1.15,2013-01-09 09:03:00,
2013-01-09 04:09:00,29.0,25.1,30.35,SW,235,0.0,0.0,85,0.00,,,0.00,Wunderground v.1.15,2013-01-09 09:09:00,
2013-01-09 04:14:00,29.1,25.2,30.35,SW,235,0.0,0.0,85,0.00,,,0.00,Wunderground v.1.15,2013-01-09 09:14:00,
2013-01-09 04:20:00,29.2,25.0,30.35,SW,235,0.0,0.0,84,0.00,,,0.00,Wunderground v.1.15,2013-01-09 09:20:00,
2013-01-09 04:25:00,29.2,25.0,30.35,SW,235,0.0,0.0,84,0.00,,,0.00,Wunderground v.1.15,2013-01-09 09:25:00,
2013-01-09 04:31:00,29.2,25.0,30.35,SW,235,0.0,0.0,84,0.00,,,0.00,Wunderground v.1.15,2013-01-09 09:31:00,
2013-01-09 04:37:00,29.0,24.8,30.35,SW,235,0.0,0.0,84,0.00,,,0.00,Wunderground v.1.15,2013-01-09 09:37:00,
2013-01-09 04:43:00,28.7,24.5,30.35,SW,235,0.0,0.0,84,0.00,,,0.00,Wunderground v.1.15,2013-01-09 09:43:00,
2013-01-09 04:48:00,28.5,24.3,30.35,SW,235,0.0,0.0,84,0.00,,,0.00,Wunderground v.1.15,2013-01-09 09:48:00,
2013-01-09 04:54:00,28.2,24.3,30.35,SW,235,0.0,0.0,85,0.00,,,0.00,Wunderground v.1.15,2013-01-09 09:54:00,
2013-01-09 05:00:00,28.2,24.3,30.35,SW,235,0.0,0.0,85,0.00,,,0.00,Wunderground v.1.15,2013-01-09 10:00:00,
2013-01-09 05:05:00,28.2,24.3,30.35,SW,235,0.0,0.0,85,0.00,,,0.00,Wunderground v.1.15,2013-01-09 10:05:00,
2013-01-09 05:11:00,28.2,24.3,30.35,SW,235,0.0,0.0,85,0.00,,,0.00,Wunderground v.1.15,2013-01-09 10:11:00,
2013-01-09 05:16:00,28.2,24.3,30.36,SW,235,0.0,0.0,85,0.00,,,0.00,Wunderground v.1.15,2013-01-09 10:16:00,
2013-01-09 05:22:00,28.0,24.1,30.36,SW,235,0.0,0.0,85,0.00,,,0.00,Wunderground v.1.15,2013-01-09 10:22:00,
2013-01-09 05:28:00,28.1,24.5,30.35,SW,235,0.0,0.0,86,0.00,,,0.00,Wunderground v.1.15,2013-01-09 10:28:00,
2013-01-09 05:33:00,28.2,24.6,30.35,SW,235,0.0,0.0,86,0.00,,,0.00,Wunderground v.1.15,2013-01-09 10:33:00,
2013-01-09 05:38:00,28.2,24.6,30.35,SW,235,0.0,0.0,86,0.00,,,0.00,Wunderground v.1.15,2013-01-09 10:38:00,
2013-01-09 05:44:00,28.2,24.6,30.35,SW,235,0.0,0.0,86,0.00,,,0.00,Wunderground v.1.15,2013-01-09 10:44:00,
2013-01-09 05:50:00,28.2,24.3,30.35,SW,235,0.0,0.0,85,0.00,,,0.00,Wunderground v.1.15,2013-01-09 10:50:00,
2013-01-09 05:56:00,28.2,24.6,30.35,SW,235,0.0,0.0,86,0.00,,,0.00,Wunderground v.1.15,2013-01-09 10:56:00,
2013-01-09 06:01:00,28.2,24.3,30.35,SW,235,0.0,0.0,85,0.00,,,0.00,Wunderground v.1.15,2013-01-09 11:01:00,
2013-01-09 06:07:00,28.1,24.2,30.35,SW,235,0.0,0.0,85,0.00,,,0.00,Wunderground v.1.15,2013-01-09 11:07:00,
2013-01-09 06:13:00,28.2,24.3,30.35,SW,235,0.0,0.0,85,0.00,,,0.00,Wunderground v.1.15,2013-01-09 11:13:00,
2013-01-09 06:19:00,28.3,24.4,30.35,SW,235,0.0,0.0,85,0.00,,,0.00,Wunderground v.1.15,2013-01-09 11:19:00,
2013-01-09 06:25:00,28.2,24.0,30.35,SW,235,0.0,0.0,84,0.00,,,0.00,Wunderground v.1.15,2013-01-09 11:25:00,
2013-01-09 06:30:00,28.2,24.3,30.35,SW,235,0.0,0.0,85,0.00,,,0.00,Wunderground v.1.15,2013-01-09 11:30:00,
2013-01-09 06:36:00,28.2,24.3,30.36,SW,235,0.0,0.0,85,0.00,,,0.00,Wunderground v.1.15,2013-01-09 11:36:00,
2013-01-09 06:42:00,28.1,24.2,30.36,SW,235,0.0,0.0,85,0.00,,,0.00,Wunderground v.1.15,2013-01-09 11:42:00,
2013-01-09 06:47:00,28.2,24.3,30.36,SW,235,0.0,0.0,85,0.00,,,0.00,Wunderground v.1.15,2013-01-09 11:47:00,
2013-01-09 06:53:00,28.1,24.2,30.36,SW,235,0.0,0.0,85,0.00,,,0.00,Wunderground v.1.15,2013-01-09 11:53:00,
2013-01-09 06:59:00,28.2,24.3,30.36,SW,235,0.0,0.0,85,0.00,,,0.00,Wunderground v.1.15,2013-01-09 11:59:00,
2013-01-09 07:04:00,28.2,24.3,30.36,SW,235,0.0,0.0,85,0.00,,,0.00,Wunderground v.1.15,2013-01-09 12:04:00,
2013-01-09 07:11:00,28.2,24.3,30.37,SW,235,0.0,0.0,85,0.00,,,0.00,Wunderground v.1.15,2013-01-09 12:11:00,
2013-01-09 07:17:00,28.2,24.3,30.37,SW,235,0.0,0.0,85,0.00,,,0.00,Wunderground v.1.15,2013-01-09 12:17:00,
2013-01-09 07:23:00,28.2,24.3,30.37,SW,235,0.0,0.0,85,0.00,,,0.00,Wunderground v.1.15,2013-01-09 12:23:00,
2013-01-09 07:29:00,28.3,24.6,30.37,SW,235,0.0,0.0,86,0.00,,,0.00,Wunderground v.1.15,2013-01-09 12:29:00,
2013-01-09 07:35:00,28.4,24.7,30.36,SW,235,0.0,0.0,86,0.00,,,0.00,Wunderground v.1.15,2013-01-09 12:35:00,
2013-01-09 07:40:00,28.4,24.5,30.37,SW,235,0.0,0.0,85,0.00,,,0.00,Wunderground v.1.15,2013-01-09 12:40:00,
2013-01-09 07:46:00,28.5,24.6,30.37,SW,235,0.0,0.0,85,0.00,,,0.00,Wunderground v.1.15,2013-01-09 12:46:00,
2013-01-09 07:52:00,28.6,24.7,30.37,SW,235,0.0,0.0,85,0.00,,,0.00,Wunderground v.1.15,2013-01-09 12:52:00,
2013-01-09 07:57:00,28.7,24.8,30.37,SW,235,0.0,0.0,85,0.00,,,0.00,Wunderground v.1.15,2013-01-09 12:57:00,
2013-01-09 08:03:00,28.9,25.2,30.36,SW,235,0.0,0.0,86,0.00,,,0.00,Wunderground v.1.15,2013-01-09 13:03:00,
2013-01-09 08:09:00,29.2,25.3,30.36,SW,235,0.0,0.0,85,0.00,,,0.00,Wunderground v.1.15,2013-01-09 13:09:00,
2013-01-09 08:14:00,29.3,25.4,30.36,SW,235,0.0,0.0,85,0.00,,,0.00,Wunderground v.1.15,2013-01-09 13:14:00,
2013-01-09 08:20:00,29.6,25.6,30.36,SW,235,0.0,0.0,85,0.00,,,0.00,Wunderground v.1.15,2013-01-09 13:20:00,
2013-01-09 08:25:00,29.9,26.2,30.36,SW,235,0.0,0.0,86,0.00,,,0.00,Wunderground v.1.15,2013-01-09 13:25:00,
2013-01-09 08:31:00,30.2,26.5,30.36,SW,235,0.0,0.0,86,0.00,,,0.00,Wunderground v.1.15,2013-01-09 13:31:00,
2013-01-09 08:37:00,30.6,26.9,30.36,SW,235,0.0,0.0,86,0.00,,,0.00,Wunderground v.1.15,2013-01-09 13:37:00,
2013-01-09 08:42:00,31.0,27.0,30.36,SW,235,0.0,0.0,85,0.00,,,0.00,Wunderground v.1.15,2013-01-09 13:42:00,
2013-01-09 08:48:00,31.5,27.5,30.36,SW,235,0.0,0.0,85,0.00,,,0.00,Wunderground v.1.15,2013-01-09 13:48:00,
2013-01-09 08:53:00,31.8,27.8,30.36,SW,235,0.0,0.0,85,0.00,,,0.00,Wunderground v.1.15,2013-01-09 13:53:00,
2013-01-09 08:59:00,31.8,27.8,30.36,SW,235,0.0,0.0,85,0.00,,,0.00,Wunderground v.1.15,2013-01-09 13:59:00,
2013-01-09 09:05:00,32.1,28.4,30.37,SW,235,0.0,0.0,86,0.00,,,0.00,Wunderground v.1.15,2013-01-09 14:05:00,
2013-01-09 09:11:00,32.7,29.3,30.37,SW,235,0.0,0.0,87,0.00,,,0.00,Wunderground v.1.15,2013-01-09 14:11:00,
2013-01-09 09:16:00,33.2,29.8,30.37,SW,235,0.0,0.0,87,0.00,,,0.00,Wunderground v.1.15,2013-01-09 14:16:00,
2013-01-09 09:22:00,34.0,30.3,30.37,SW,235,0.0,0.0,86,0.00,,,0.00,Wunderground v.1.15,2013-01-09 14:22:00,
2013-01-09 09:27:00,34.2,30.2,30.37,SW,235,0.0,0.0,85,0.00,,,0.00,Wunderground v.1.15,2013-01-09 14:27:00,
2013-01-09 09:33:00,34.3,30.3,30.36,SW,235,0.0,0.0,85,0.00,,,0.00,Wunderground v.1.15,2013-01-09 14:33:00,
2013-01-09 09:39:00,34.6,30.6,30.36,SW,235,0.0,0.0,85,0.00,,,0.00,Wunderground v.1.15,2013-01-09 14:39:00,
2013-01-09 09:44:00,35.0,30.7,30.36,SW,235,0.0,0.0,84,0.00,,,0.00,Wunderground v.1.15,2013-01-09 14:44:00,
2013-01-09 09:49:00,35.6,31.2,30.36,SW,235,0.0,0.0,84,0.00,,,0.00,Wunderground v.1.15,2013-01-09 14:49:00,
2013-01-09 09:55:00,35.8,31.1,30.36,SW,235,0.0,0.0,83,0.00,,,0.00,Wunderground v.1.15,2013-01-09 14:55:00,
2013-01-09 10:00:00,36.3,31.9,30.36,SW,235,0.0,0.0,84,0.00,,,0.00,Wunderground v.1.15,2013-01-09 15:00:00,
2013-01-09 10:06:00,37.0,32.6,30.35,SW,235,0.0,0.0,84,0.00,,,0.00,Wunderground v.1.15,2013-01-09 15:06:00,
2013-01-09 10:11:00,37.7,32.7,30.35,SW,235,0.0,0.0,82,0.00,,,0.00,Wunderground v.1.15,2013-01-09 15:11:00,
2013-01-09 10:17:00,38.5,32.9,30.34,SW,235,0.0,0.0,80,0.00,,,0.00,Wunderground v.1.15,2013-01-09 15:17:00,
2013-01-09 10:22:00,39.3,32.7,30.34,SW,235,0.0,0.0,77,0.00,,,0.00,Wunderground v.1.15,2013-01-09 15:22:00,
2013-01-09 10:28:00,40.0,33.0,30.33,SW,235,0.0,0.0,76,0.00,,,0.00,Wunderground v.1.15,2013-01-09 15:28:00,
2013-01-09 10:34:00,40.5,33.2,30.32,SW,235,0.0,0.0,75,0.00,,,0.00,Wunderground v.1.15,2013-01-09 15:34:00,
2013-01-09 10:39:00,40.9,33.2,30.32,SW,235,0.0,0.0,74,0.00,,,0.00,Wunderground v.1.15,2013-01-09 15:39:00,
2013-01-09 10:45:00,41.3,33.6,30.32,SW,235,0.0,0.0,74,0.00,,,0.00,Wunderground v.1.15,2013-01-09 15:45:00,
2013-01-09 10:50:00,41.7,33.3,30.31,SW,235,0.0,0.0,72,0.00,,,0.00,Wunderground v.1.15,2013-01-09 15:50:00,
2013-01-09 10:56:00,42.3,33.6,30.30,SW,235,0.0,0.0,71,0.00,,,0.00,Wunderground v.1.15,2013-01-09 15:56:00,
2013-01-09 11:02:00,43.0,34.2,30.29,SW,235,0.0,0.0,71,0.00,,,0.00,Wunderground v.1.15,2013-01-09 16:02:00,
2013-01-09 11:07:00,43.5,34.0,30.29,SW,235,0.0,0.0,69,0.00,,,0.00,Wunderground v.1.15,2013-01-09 16:07:00,
2013-01-09 11:13:00,44.0,34.8,30.27,SW,235,0.0,2.0,70,0.00,,,0.00,Wunderground v.1.15,2013-01-09 16:13:00,
2013-01-09 11:18:00,44.1,35.3,30.26,SW,235,0.0,2.0,71,0.00,,,0.00,Wunderground v.1.15,2013-01-09 16:18:00,
2013-01-09 11:24:00,44.1,35.6,30.27,SSE,161,1.0,3.0,72,0.00,,,0.00,Wunderground v.1.15,2013-01-09 16:24:00,
2013-01-09 11:29:00,44.1,35.6,30.27,SSE,167,1.0,3.0,72,0.00,,,0.00,Wunderground v.1.15,2013-01-09 16:29:00,
2013-01-09 11:35:00,44.0,35.9,30.27,SSE,167,0.0,2.0,73,0.00,,,0.00,Wunderground v.1.15,2013-01-09 16:35:00,
2013-01-09 11:40:00,43.9,35.8,30.28,South,189,1.0,2.0,73,0.00,,,0.00,Wunderground v.1.15,2013-01-09 16:40:00,
2013-01-09 11:46:00,43.8,36.0,30.28,South,183,2.0,4.0,74,0.00,,,0.00,Wunderground v.1.15,2013-01-09 16:46:00,
2013-01-09 11:51:00,43.7,36.0,30.27,SSW,192,2.0,2.0,74,0.00,,,0.00,Wunderground v.1.15,2013-01-09 16:51:00,
2013-01-09 11:57:00,43.7,36.3,30.27,South,190,1.0,2.0,75,0.00,,,0.00,Wunderground v.1.15,2013-01-09 16:57:00,
2013-01-09 12:02:00,43.6,36.2,30.26,SSE,161,2.0,2.0,75,0.00,,,0.00,Wunderground v.1.15,2013-01-09 17:02:00,
2013-01-09 12:08:00,43.7,36.3,30.25,South,182,2.0,3.0,75,0.00,,,0.00,Wunderground v.1.15,2013-01-09 17:08:00,
2013-01-09 12:13:00,43.8,36.4,30.25,South,182,1.0,2.0,75,0.00,,,0.00,Wunderground v.1.15,2013-01-09 17:13:00,
2013-01-09 12:19:00,44.0,36.6,30.24,SE,146,1.0,3.0,75,0.00,,,0.00,Wunderground v.1.15,2013-01-09 17:19:00,
2013-01-09 12:24:00,44.1,36.7,30.24,SSE,149,1.0,3.0,75,0.00,,,0.00,Wunderground v.1.15,2013-01-09 17:24:00,
2013-01-09 12:30:00,44.2,36.8,30.23,SSE,160,1.0,2.0,75,0.00,,,0.00,Wunderground v.1.15,2013-01-09 17:30:00,
2013-01-09 12:35:00,44.2,36.8,30.23,SSW,192,1.0,4.0,75,0.00,,,0.00,Wunderground v.1.15,2013-01-09 17:35:00,
2013-01-09 12:41:00,44.1,37.0,30.21,SE,144,1.0,2.0,76,0.00,,,0.00,Wunderground v.1.15,2013-01-09 17:41:00,
2013-01-09 12:47:00,44.2,37.1,30.21,SSE,161,1.0,2.0,76,0.00,,,0.00,Wunderground v.1.15,2013-01-09 17:47:00,
2013-01-09 12:53:00,44.3,36.9,30.22,SSW,203,1.0,4.0,75,0.00,,,0.00,Wunderground v.1.15,2013-01-09 17:53:00,
2013-01-09 12:59:00,44.4,37.0,30.22,SSW,196,2.0,4.0,75,0.00,,,0.00,Wunderground v.1.15,2013-01-09 17:59:00,
2013-01-09 13:05:00,44.5,37.1,30.23,SW,223,2.0,2.0,75,0.00,,,0.00,Wunderground v.1.15,2013-01-09 18:05:00,
2013-01-09 13:11:00,44.6,37.2,30.23,SW,217,2.0,2.0,75,0.00,,,0.00,Wunderground v.1.15,2013-01-09 18:11:00,
2013-01-09 13:16:00,44.6,37.2,30.23,SW,217,2.0,2.0,75,0.00,,,0.00,Wunderground v.1.15,2013-01-09 18:16:00,
2013-01-09 13:22:00,44.7,36.9,30.23,WSW,242,1.0,2.0,74,0.00,,,0.00,Wunderground v.1.15,2013-01-09 18:22:00,
2013-01-09 13:28:00,44.7,36.9,30.23,WSW,245,1.0,2.0,74,0.00,,,0.00,Wunderground v.1.15,2013-01-09 18:28:00,
2013-01-09 13:33:00,44.5,36.7,30.23,WSW,252,2.0,2.0,74,0.00,,,0.00,Wunderground v.1.15,2013-01-09 18:33:00,
2013-01-09 13:39:00,44.5,36.7,30.23,WSW,237,2.0,3.0,74,0.00,,,0.00,Wunderground v.1.15,2013-01-09 18:39:00,
2013-01-09 13:42:00,44.4,36.6,30.23,West,270,2.0,3.0,74,0.00,,,0.00,Wunderground v.1.15,2013-01-09 18:42:00,
2013-01-09 13:43:00,44.3,36.5,30.23,West,278,2.0,3.0,74,0.00,,,0.00,Wunderground v.1.15,2013-01-09 18:43:00,
2013-01-09 13:44:00,44.3,36.5,30.23,SW,229,2.0,3.0,74,0.00,,,0.00,Wunderground v.1.15,2013-01-09 18:44:00,
2013-01-09 13:45:00,44.2,36.4,30.23,West,269,2.0,3.0,74,0.00,,,0.00,Wunderground v.1.15,2013-01-09 18:45:00,
2013-01-09 13:46:00,44.2,36.4,30.23,WSW,253,3.0,3.0,74,0.00,,,0.00,Wunderground v.1.15,2013-01-09 18:46:00,
2013-01-09 13:47:00,44.2,36.4,30.23,WNW,288,3.0,3.0,74,0.00,,,0.00,Wunderground v.1.15,2013-01-09 18:47:00,
2013-01-09 13:48:00,44.1,36.3,30.23,West,259,3.0,5.0,74,0.00,,,0.00,Wunderground v.1.15,2013-01-09 18:48:00,
2013-01-09 13:49:00,44.1,36.3,30.23,WSW,245,3.0,5.0,74,0.00,,,0.00,Wunderground v.1.15,2013-01-09 18:49:00,
2013-01-09 13:50:00,44.1,36.3,30.23,WSW,241,3.0,3.0,74,0.00,,,0.00,Wunderground v.1.15,2013-01-09 18:50:00,
2013-01-09 13:53:00,43.9,35.8,30.23,SW,215,2.0,3.0,73,0.00,,,0.00,Wunderground v.1.15,2013-01-09 18:53:00,
2013-01-09 13:58:00,43.7,36.0,30.23,SW,219,2.0,6.0,74,0.00,,,0.00,Wunderground v.1.15,2013-01-09 18:58:00,
2013-01-09 14:04:00,43.6,35.9,30.22,SW,218,3.0,5.0,74,0.00,,,0.00,Wunderground v.1.15,2013-01-09 19:04:00,
2013-01-09 14:10:00,43.5,35.8,30.22,SSW,211,3.0,3.0,74,0.00,,,0.00,Wunderground v.1.15,2013-01-09 19:10:00,
2013-01-09 14:15:00,43.3,35.6,30.20,SW,215,2.0,3.0,74,0.00,,,0.00,Wunderground v.1.15,2013-01-09 19:15:00,
2013-01-09 14:21:00,43.1,35.4,30.20,South,185,2.0,4.0,74,0.00,,,0.00,Wunderground v.1.15,2013-01-09 19:21:00,
2013-01-09 14:27:00,43.0,35.6,30.18,South,187,2.0,4.0,75,0.00,,,0.00,Wunderground v.1.15,2013-01-09 19:27:00,
2013-01-09 14:32:00,43.1,35.7,30.17,South,187,1.0,1.0,75,0.00,,,0.00,Wunderground v.1.15,2013-01-09 19:32:00,
2013-01-09 14:38:00,43.1,35.7,30.16,SSE,167,1.0,4.0,75,0.00,,,0.00,Wunderground v.1.15,2013-01-09 19:38:00,
2013-01-09 14:44:00,43.1,35.7,30.16,South,173,2.0,4.0,75,0.00,,,0.00,Wunderground v.1.15,2013-01-09 19:44:00,
2013-01-09 14:50:00,43.1,36.0,30.10,SSE,148,3.0,3.0,76,0.00,,,0.00,Wunderground v.1.15,2013-01-09 19:50:00,
2013-01-09 14:55:00,42.8,36.1,30.13,SSW,205,3.0,4.0,77,0.00,,,0.00,Wunderground v.1.15,2013-01-09 19:55:00,
2013-01-09 15:00:00,42.9,36.2,30.13,SW,221,2.0,2.0,77,0.00,,,0.00,Wunderground v.1.15,2013-01-09 20:00:00,
2013-01-09 15:06:00,43.0,36.3,30.14,SW,223,2.0,4.0,77,0.00,,,0.00,Wunderground v.1.15,2013-01-09 20:06:00,
2013-01-09 15:11:00,43.2,36.5,30.14,SW,220,1.0,4.0,77,0.00,,,0.00,Wunderground v.1.15,2013-01-09 20:11:00,
2013-01-09 15:16:00,43.3,36.2,30.15,SSW,210,2.0,4.0,76,0.00,,,0.00,Wunderground v.1.15,2013-01-09 20:16:00,
2013-01-09 15:22:00,43.4,36.3,30.14,SSW,213,2.0,5.0,76,0.00,,,0.00,Wunderground v.1.15,2013-01-09 20:22:00,
2013-01-09 15:27:00,43.5,36.4,30.13,SW,220,2.0,5.0,76,0.00,,,0.00,Wunderground v.1.15,2013-01-09 20:27:00,
2013-01-09 15:33:00,43.6,36.5,30.13,SW,220,1.0,2.0,76,0.00,,,0.00,Wunderground v.1.15,2013-01-09 20:33:00,
2013-01-09 15:39:00,43.6,36.5,30.12,SSW,206,1.0,2.0,76,0.00,,,0.00,Wunderground v.1.15,2013-01-09 20:39:00,
2013-01-09 15:45:00,43.5,36.4,30.12,SSW,211,1.0,2.0,76,0.00,,,0.00,Wunderground v.1.15,2013-01-09 20:45:00,
2013-01-09 15:51:00,43.4,36.7,30.12,SSW,211,1.0,2.0,77,0.00,,,0.00,Wunderground v.1.15,2013-01-09 20:51:00,
2013-01-09 15:57:00,43.4,36.7,30.13,SSW,211,1.0,2.0,77,0.00,,,0.00,Wunderground v.1.15,2013-01-09 20:57:00,
2013-01-09 16:02:00,43.5,36.8,30.13,SSW,211,1.0,2.0,77,0.00,,,0.00,Wunderground v.1.15,2013-01-09 21:02:00,
2013-01-09 16:08:00,43.5,36.8,30.13,SSW,211,1.0,2.0,77,0.00,,,0.00,Wunderground v.1.15,2013-01-09 21:08:00,
2013-01-09 16:14:00,43.6,36.5,30.13,SSW,209,1.0,3.0,76,0.00,,,0.00,Wunderground v.1.15,2013-01-09 21:14:00,
2013-01-09 16:20:00,43.7,36.6,30.13,SSW,211,2.0,3.0,76,0.00,,,0.00,Wunderground v.1.15,2013-01-09 21:20:00,
2013-01-09 16:25:00,43.8,36.7,30.12,SW,223,2.0,5.0,76,0.00,,,0.00,Wunderground v.1.15,2013-01-09 21:25:00,
2013-01-09 16:30:00,43.9,36.8,30.12,SW,215,3.0,4.0,76,0.00,,,0.00,Wunderground v.1.15,2013-01-09 21:30:00,
2013-01-09 16:36:00,43.8,36.7,30.12,SSW,206,3.0,6.0,76,0.00,,,0.00,Wunderground v.1.15,2013-01-09 21:36:00,
2013-01-09 16:42:00,43.9,37.2,30.12,SW,217,3.0,3.0,77,0.00,,,0.00,Wunderground v.1.15,2013-01-09 21:42:00,
2013-01-09 16:48:00,43.9,37.2,30.13,SW,228,3.0,5.0,77,0.00,,,0.00,Wunderground v.1.15,2013-01-09 21:48:00,
2013-01-09 16:54:00,44.0,37.3,30.13,SW,229,3.0,6.0,77,0.00,,,0.00,Wunderground v.1.15,2013-01-09 21:54:00,
2013-01-09 17:00:00,44.1,37.3,30.13,SW,229,4.0,4.0,77,0.00,,,0.00,Wunderground v.1.15,2013-01-09 22:00:00,
2013-01-09 17:06:00,44.2,37.4,30.14,West,259,4.0,5.0,77,0.00,,,0.00,Wunderground v.1.15,2013-01-09 22:06:00,
2013-01-09 17:11:00,44.2,37.1,30.14,West,272,3.0,3.0,76,0.00,,,0.00,Wunderground v.1.15,2013-01-09 22:11:00,
2013-01-09 17:17:00,44.2,37.1,30.14,WSW,240,2.0,3.0,76,0.00,,,0.00,Wunderground v.1.15,2013-01-09 22:17:00,
2013-01-09 17:23:00,44.1,37.0,30.14,WSW,248,3.0,8.0,76,0.00,,,0.00,Wunderground v.1.15,2013-01-09 22:23:00,
2013-01-09 17:28:00,44.0,36.9,30.14,WSW,257,4.0,8.0,76,0.00,,,0.00,Wunderground v.1.15,2013-01-09 22:28:00,
2013-01-09 17:33:00,43.7,37.0,30.14,SW,221,3.0,4.0,77,0.00,,,0.00,Wunderground v.1.15,2013-01-09 22:33:00,
2013-01-09 17:39:00,43.5,36.8,30.13,SW,234,3.0,4.0,77,0.00,,,0.00,Wunderground v.1.15,2013-01-09 22:39:00,
2013-01-09 17:45:00,43.4,36.7,30.14,WSW,253,2.0,5.0,77,0.00,,,0.00,Wunderground v.1.15,2013-01-09 22:45:00,
2013-01-09 17:50:00,43.3,36.6,30.13,WNW,285,2.0,2.0,77,0.00,,,0.00,Wunderground v.1.15,2013-01-09 22:50:00,
2013-01-09 17:56:00,43.3,36.9,30.14,SW,234,2.0,2.0,78,0.00,,,0.00,Wunderground v.1.15,2013-01-09 22:56:00,
2013-01-09 18:01:00,43.3,36.9,30.14,SW,235,2.0,3.0,78,0.00,,,0.00,Wunderground v.1.15,2013-01-09 23:01:00,
2013-01-09 18:07:00,43.2,37.1,30.14,SSW,207,3.0,5.0,79,0.00,,,0.00,Wunderground v.1.15,2013-01-09 23:07:00,
2013-01-09 18:13:00,43.2,36.8,30.13,SW,219,4.0,6.0,78,0.00,,,0.00,Wunderground v.1.15,2013-01-09 23:13:00,
2013-01-09 18:19:00,43.3,37.2,30.13,WNW,282,4.0,6.0,79,0.00,,,0.00,Wunderground v.1.15,2013-01-09 23:19:00,
2013-01-09 18:24:00,43.2,36.8,30.13,SW,217,3.0,4.0,78,0.00,,,0.00,Wunderground v.1.15,2013-01-09 23:24:00,
2013-01-09 18:30:00,43.3,37.2,30.14,SW,221,3.0,3.0,79,0.00,,,0.00,Wunderground v.1.15,2013-01-09 23:30:00,
2013-01-09 18:36:00,43.5,37.4,30.14,WNW,293,5.0,9.0,79,0.00,,,0.00,Wunderground v.1.15,2013-01-09 23:36:00,
2013-01-09 18:42:00,43.7,37.3,30.14,West,271,5.0,5.0,78,0.00,,,0.00,Wunderground v.1.15,2013-01-09 23:42:00,
2013-01-09 18:48:00,43.6,37.2,30.15,West,281,4.0,5.0,78,0.00,,,0.00,Wunderground v.1.15,2013-01-09 23:48:00,
2013-01-09 18:53:00,43.5,37.4,30.14,SW,223,4.0,5.0,79,0.00,,,0.00,Wunderground v.1.15,2013-01-09 23:53:00,
2013-01-09 18:59:00,43.6,37.5,30.15,SW,227,5.0,8.0,79,0.00,,,0.00,Wunderground v.1.15,2013-01-09 23:59:00,
2013-01-09 19:06:00,43.6,37.5,30.15,West,273,5.0,6.0,79,0.00,,,0.00,Wunderground v.1.15,2013-01-10 00:06:00,
2013-01-09 19:12:00,43.6,37.5,30.15,South,188,4.0,5.0,79,0.00,,,0.00,Wunderground v.1.15,2013-01-10 00:12:00,
2013-01-09 19:18:00,43.7,37.6,30.15,WSW,257,4.0,8.0,79,0.00,,,0.00,Wunderground v.1.15,2013-01-10 00:18:00,
2013-01-09 19:23:00,43.7,37.6,30.15,SW,227,4.0,7.0,79,0.00,,,0.00,Wunderground v.1.15,2013-01-10 00:23:00,
2013-01-09 19:29:00,43.8,37.7,30.15,SW,234,4.0,7.0,79,0.00,,,0.00,Wunderground v.1.15,2013-01-10 00:29:00,
2013-01-09 19:35:00,43.9,37.8,30.15,SW,217,4.0,6.0,79,0.00,,,0.00,Wunderground v.1.15,2013-01-10 00:35:00,
2013-01-09 19:41:00,43.9,37.8,30.15,WSW,248,4.0,5.0,79,0.00,,,0.00,Wunderground v.1.15,2013-01-10 00:41:00,
2013-01-09 19:46:00,43.8,37.7,30.15,SW,231,4.0,7.0,79,0.00,,,0.00,Wunderground v.1.15,2013-01-10 00:46:00,
2013-01-09 19:52:00,43.7,37.6,30.15,WSW,246,4.0,7.0,79,0.00,,,0.00,Wunderground v.1.15,2013-01-10 00:52:00,
2013-01-09 19:58:00,43.7,37.6,30.15,West,276,4.0,7.0,79,0.00,,,0.00,Wunderground v.1.15,2013-01-10 00:58:00,
2013-01-09 20:03:00,43.6,37.5,30.15,West,263,4.0,4.0,79,0.00,,,0.00,Wunderground v.1.15,2013-01-10 01:03:00,
2013-01-09 20:08:00,43.6,37.5,30.15,West,273,3.0,4.0,79,0.00,,,0.00,Wunderground v.1.15,2013-01-10 01:08:00,
2013-01-09 20:14:00,43.6,37.5,30.15,WSW,243,4.0,8.0,79,0.00,,,0.00,Wunderground v.1.15,2013-01-10 01:14:00,
2013-01-09 20:20:00,43.6,37.5,30.15,West,273,4.0,4.0,79,0.00,,,0.00,Wunderground v.1.15,2013-01-10 01:20:00,
2013-01-09 20:26:00,43.6,37.5,30.15,SW,226,3.0,4.0,79,0.00,,,0.00,Wunderground v.1.15,2013-01-10 01:26:00,
2013-01-09 20:31:00,43.6,37.2,30.15,WNW,282,2.0,3.0,78,0.00,,,0.00,Wunderground v.1.15,2013-01-10 01:31:00,
2013-01-09 20:37:00,43.6,37.2,30.15,West,279,3.0,6.0,78,0.00,,,0.00,Wunderground v.1.15,2013-01-10 01:37:00,
2013-01-09 20:43:00,43.9,37.5,30.15,SW,229,4.0,8.0,78,0.00,,,0.00,Wunderground v.1.15,2013-01-10 01:43:00,
2013-01-09 20:48:00,44.0,37.3,30.15,WNW,300,3.0,8.0,77,0.00,,,0.00,Wunderground v.1.15,2013-01-10 01:48:00,
2013-01-09 20:54:00,44.1,37.0,30.15,WSW,253,2.0,4.0,76,0.00,,,0.00,Wunderground v.1.15,2013-01-10 01:54:00,
2013-01-09 20:59:00,44.2,37.1,30.15,WSW,238,2.0,4.0,76,0.00,,,0.00,Wunderground v.1.15,2013-01-10 01:59:00,
2013-01-09 21:05:00,44.3,36.9,30.15,West,279,2.0,2.0,75,0.00,,,0.00,Wunderground v.1.15,2013-01-10 02:05:00,
2013-01-09 21:10:00,44.4,37.0,30.15,SW,227,2.0,2.0,75,0.00,,,0.00,Wunderground v.1.15,2013-01-10 02:10:00,
2013-01-09 21:16:00,44.3,36.5,30.14,WSW,240,3.0,5.0,74,0.00,,,0.00,Wunderground v.1.15,2013-01-10 02:16:00,
2013-01-09 21:22:00,44.4,36.6,30.14,SW,233,3.0,5.0,74,0.00,,,0.00,Wunderground v.1.15,2013-01-10 02:22:00,
2013-01-09 21:28:00,44.5,36.4,30.15,SW,227,3.0,5.0,73,0.00,,,0.00,Wunderground v.1.15,2013-01-10 02:28:00,
2013-01-09 21:34:00,44.5,36.4,30.15,WNW,294,3.0,5.0,73,0.00,,,0.00,Wunderground v.1.15,2013-01-10 02:34:00,
2013-01-09 21:39:00,44.5,36.4,30.15,WNW,283,3.0,5.0,73,0.00,,,0.00,Wunderground v.1.15,2013-01-10 02:39:00,
2013-01-09 21:45:00,44.4,36.3,30.15,SW,217,2.0,7.0,73,0.00,,,0.00,Wunderground v.1.15,2013-01-10 02:45:00,
2013-01-09 21:50:00,44.3,36.2,30.15,WSW,246,3.0,3.0,73,0.00,,,0.00,Wunderground v.1.15,2013-01-10 02:50:00,
2013-01-09 21:56:00,44.1,36.3,30.15,WSW,246,2.0,5.0,74,0.00,,,0.00,Wunderground v.1.15,2013-01-10 02:56:00,
2013-01-09 22:02:00,43.9,36.1,30.15,West,260,2.0,3.0,74,0.00,,,0.00,Wunderground v.1.15,2013-01-10 03:02:00,
2013-01-09 22:07:00,43.7,36.3,30.15,WSW,250,3.0,4.0,75,0.00,,,0.00,Wunderground v.1.15,2013-01-10 03:07:00,
2013-01-09 22:13:00,43.5,36.1,30.16,SW,234,3.0,5.0,75,0.00,,,0.00,Wunderground v.1.15,2013-01-10 03:13:00,
2013-01-09 22:19:00,43.4,36.0,30.16,SW,228,3.0,5.0,75,0.00,,,0.00,Wunderground v.1.15,2013-01-10 03:19:00,
2013-01-09 22:25:00,43.3,35.9,30.16,SW,222,2.0,5.0,75,0.00,,,0.00,Wunderground v.1.15,2013-01-10 03:25:00,
2013-01-09 22:31:00,43.1,35.7,30.16,SW,228,2.0,2.0,75,0.00,,,0.00,Wunderground v.1.15,2013-01-10 03:31:00,
2013-01-09 22:37:00,43.0,36.0,30.16,WSW,240,3.0,5.0,76,0.00,,,0.00,Wunderground v.1.15,2013-01-10 03:37:00,
2013-01-09 22:43:00,43.0,35.6,30.16,WNW,284,3.0,3.0,75,0.00,,,0.00,Wunderground v.1.15,2013-01-10 03:43:00,
2013-01-09 22:48:00,42.9,35.5,30.16,WNW,285,2.0,3.0,75,0.00,,,0.00,Wunderground v.1.15,2013-01-10 03:48:00,
2013-01-09 22:54:00,42.8,35.4,30.17,WSW,257,2.0,5.0,75,0.00,,,0.00,Wunderground v.1.15,2013-01-10 03:54:00,
2013-01-09 22:59:00,42.6,35.2,30.17,West,271,3.0,5.0,75,0.00,,,0.00,Wunderground v.1.15,2013-01-10 03:59:00,
2013-01-09 23:05:00,42.7,35.3,30.17,West,267,3.0,4.0,75,0.00,,,0.00,Wunderground v.1.15,2013-01-10 04:05:00,
2013-01-09 23:11:00,42.8,35.1,30.17,WSW,256,3.0,6.0,74,0.00,,,0.00,Wunderground v.1.15,2013-01-10 04:11:00,
2013-01-09 23:18:00,42.9,34.8,30.17,WSW,248,4.0,6.0,73,0.00,,,0.00,Wunderground v.1.15,2013-01-10 04:18:00,
2013-01-09 23:23:00,42.9,34.8,30.17,West,262,4.0,7.0,73,0.00,,,0.00,Wunderground v.1.15,2013-01-10 04:23:00,
2013-01-09 23:29:00,43.0,34.6,30.17,West,275,5.0,8.0,72,0.00,,,0.00,Wunderground v.1.15,2013-01-10 04:29:00,
2013-01-09 23:35:00,43.2,34.4,30.18,WSW,255,5.0,9.0,71,0.00,,,0.00,Wunderground v.1.15,2013-01-10 04:35:00,
2013-01-09 23:41:00,43.1,34.0,30.18,WNW,285,5.0,7.0,70,0.00,,,0.00,Wunderground v.1.15,2013-01-10 04:41:00,
2013-01-09 23:46:00,43.1,34.0,30.18,West,277,4.0,7.0,70,0.00,,,0.00,Wunderground v.1.15,2013-01-10 04:46:00,
2013-01-09 23:52:00,43.1,34.0,30.18,West,277,3.0,5.0,70,0.00,,,0.00,Wunderground v.1.15,2013-01-10 04:52:00,
2013-01-09 23:57:00,43.1,33.6,30.19,West,267,4.0,9.0,69,0.00,,,0.00,Wunderground v.1.15,2013-01-10 04:57:00,